الصفحة الرئيسية
METAR-TAF:

METAR-TAF

مطار :

مطار مشهد الدولي

مشهد, إيران

دائرة عرض: 36-16N, خط طول: 059-38E, ارتفاع: 989 متر

مراقبة الطقس الحالي

تاريخ ووقت الإصدار 26 دقيقة قبل الساعة 21:00UTC
ريح 10 عقدة من الشمال/الشمال الغربي
درجة الحرارة 27°درجة مئوية
الرطوبة 42%
ضغط 1014 hPa
الرؤية 10 كم أو أكثر
الغيوم لا تقل 1500 م ولا وجود لمزنة ركامية السحاب الأسود

METAR: OIMM 132100Z 33010KT CAVOK 27/13 Q1013 A2994

زمن: 01:56 (21:26 UTC)

توقعات

تاريخ ووقت الإصدار 3ساعات و 56 دقيقة قبل الساعة 17:30UTC
التوقعات صالحة من13 الساعة 18 UTC إلى 14 الساعة 24 UTC
ريح 7 عقدة من الشرق/الشمال الشرقي
الرؤية: 8000 متر
مؤقت
من 14 الساعة 07 UTC إلى 14 الساعة 18 UTC
ريح 19 عقدة من الشرق/الشمال الشرقي

TAF: OIMM 131730Z 1318/1424 07007KT 8000 NSC TEMPO 1407/1418 07019KT

أرصاد الطقس والتوقعات من أكثر من 4000 مطار (تقارير الطقس للمطار METAR والتنبؤ بالطقس بالمطارTAF).

المحطات المتاحة هي النقط الصفراء والحمراء على الخريطة.

حرك المؤشر فوق النقطة لمعرفة اسم المحطة.

ثم انقر لمعرفة أرصاد وتوقعات الطقس.

لتغيير الخارطة: اضغط على الأزرار الخضراء مع رمز الصليب الأسود للتكبير. على الزر الأخضر مع شرطة للتصغير، أو على الأسهم الخضراء للخرائط المجاورة.


METAR-TAF: